Time;durP1;ratioP1;P1;durP2;ratioP2;P2;SDS_P1;SDS_P2;PMS_P1;PMS_P2;Temp;Humidity;BMP_temperature;BMP_pressure;BME280_temperature;BME280_humidity;BME280_pressure;Samples;Min_cycle;Max_cycle;Signal;HPM_P1;HPM_P2
2023/03/14 07:09:05;;;;;;;0.88;0.40;;;;;;;22.69;23.95;97252.69;5065513;28;20377;-50
2023/03/14 07:11:31;;;;;;;0.75;0.30;;;;;;;23.46;23.08;97270.56;5065446;28;20039;-53
2023/03/14 07:13:57;;;;;;;2.35;0.50;;;;;;;23.84;22.63;97265.53;5063776;28;20528;-54
2023/03/14 07:16:22;;;;;;;4.57;0.45;;;;;;;24.16;21.88;97274.38;5067140;28;20469;-51
2023/03/14 07:18:49;;;;;;;4.07;0.40;;;;;;;24.36;21.80;97272.41;5063582;28;20047;-52
2023/03/14 07:21:14;;;;;;;3.95;0.50;;;;;;;24.52;21.40;97277.84;5062506;28;20033;-52
2023/03/14 07:23:40;;;;;;;1.17;0.50;;;;;;;24.49;21.82;97248.34;5063683;28;20086;-51
2023/03/14 07:26:06;;;;;;;0.95;0.63;;;;;;;24.76;21.49;97257.47;5064179;28;20079;-50
2023/03/14 07:28:31;;;;;;;1.20;0.43;;;;;;;24.89;21.53;97278.09;5067171;28;20044;-56
2023/03/14 07:30:56;;;;;;;0.77;0.57;;;;;;;25.10;20.87;97282.34;5067187;28;20444;-55
2023/03/14 07:33:22;;;;;;;1.17;0.50;;;;;;;25.17;20.98;97287.94;5064457;28;20099;-53
2023/03/14 07:35:48;;;;;;;1.27;0.50;;;;;;;25.26;20.63;97285.75;5065326;28;20036;-52
2023/03/14 07:38:15;;;;;;;0.82;0.50;;;;;;;25.25;20.65;97286.13;5064990;28;20057;-52
2023/03/14 07:40:40;;;;;;;0.38;0.30;;;;;;;25.57;20.36;97307.78;5066968;28;20067;-54
2023/03/14 07:43:06;;;;;;;0.80;0.50;;;;;;;25.52;20.21;97292.41;5061584;28;20139;-54
2023/03/14 07:45:32;;;;;;;0.80;0.40;;;;;;;25.68;20.03;97312.25;5062640;28;20116;-55
2023/03/14 07:47:57;;;;;;;0.93;0.32;;;;;;;25.74;20.21;97314.69;5064167;28;20025;-55
2023/03/14 07:50:26;;;;;;;0.65;0.55;;;;;;;25.86;19.91;97315.25;5063052;28;20064;-56
2023/03/14 07:52:51;;;;;;;0.60;0.40;;;;;;;25.96;19.85;97316.59;5065762;28;20029;-58
2023/03/14 07:55:17;;;;;;;0.77;0.43;;;;;;;26.06;19.66;97326.94;5064356;28;20032;-53
2023/03/14 07:57:43;;;;;;;1.95;0.73;;;;;;;26.06;19.55;97309.66;5063396;28;20021;-54
2023/03/14 08:00:09;;;;;;;0.57;0.47;;;;;;;26.26;19.46;97327.59;5064713;28;20036;-58
2023/03/14 08:02:36;;;;;;;0.25;0.20;;;;;;;26.38;19.54;97337.53;5061296;28;20033;-57
2023/03/14 08:05:02;;;;;;;4.18;0.43;;;;;;;26.36;19.22;97336.34;5063714;28;20025;-52
2023/03/14 08:07:27;;;;;;;0.85;0.50;;;;;;;26.43;19.00;97337.22;5066663;28;20496;-52
2023/03/14 08:09:53;;;;;;;0.40;0.40;;;;;;;26.51;19.15;97334.53;5061912;28;20079;-48
2023/03/14 08:12:18;;;;;;;0.68;0.40;;;;;;;26.53;19.09;97330.25;5066114;28;20037;-50
2023/03/14 08:14:43;;;;;;;1.38;0.50;;;;;;;26.50;18.95;97321.94;5062342;28;20032;-52
2023/03/14 08:17:09;;;;;;;0.35;0.28;;;;;;;26.35;18.93;97294.25;5064606;28;20056;-54
2023/03/14 08:19:34;;;;;;;2.55;0.50;;;;;;;26.75;18.58;97349.78;5057594;28;20512;-54
2023/03/14 08:22:00;;;;;;;1.65;0.50;;;;;;;26.75;18.66;97352.53;5050567;28;20103;-56
2023/03/14 08:24:25;;;;;;;1.45;0.50;;;;;;;26.68;18.63;97342.22;5049547;28;20074;-56
2023/03/14 08:26:50;;;;;;;0.93;0.45;;;;;;;26.81;18.30;97359.25;5051611;28;20491;-55
2023/03/14 08:29:16;;;;;;;0.52;0.40;;;;;;;26.74;18.56;97365.47;5046843;28;20032;-55
2023/03/14 08:31:41;;;;;;;2.85;0.50;;;;;;;26.65;18.29;97348.47;5050548;28;20450;-53
2023/03/14 08:34:07;;;;;;;0.88;0.47;;;;;;;26.68;18.49;97347.72;5050182;28;20033;-56
2023/03/14 08:36:33;;;;;;;1.08;0.50;;;;;;;26.93;18.36;97378.28;5052547;28;20067;-55
2023/03/14 08:38:58;;;;;;;0.88;0.47;;;;;;;26.98;17.99;97379.88;5049608;28;20099;-56
2023/03/14 08:41:24;;;;;;;0.50;0.50;;;;;;;27.00;17.88;97386.59;5050849;28;20061;-50
2023/03/14 08:43:49;;;;;;;2.63;1.02;;;;;;;27.00;19.65;97402.34;5049201;28;20056;-55
2023/03/14 08:46:15;;;;;;;5.05;1.05;;;;;;;27.15;20.85;97404.03;5050202;28;20548;-48
